Time;durP1;ratioP1;P1;durP2;ratioP2;P2;SDS_P1;SDS_P2;PMS_P1;PMS_P2;Temp;Humidity;BMP_temperature;BMP_pressure;BME280_temperature;BME280_humidity;BME280_pressure;Samples;Min_cycle;Max_cycle;Signal;HPM_P1;HPM_P2
2024/01/12 00:02:00;;;;;;;57.92;34.03;;;;;;;;;;5112573;28;20043;-49
2024/01/12 00:04:26;;;;;;;61.13;31.42;;;;;;;;;;5112294;28;20432;-51
2024/01/12 00:06:52;;;;;;;66.50;33.90;;;;;;;;;;5112771;28;20031;-53
2024/01/12 00:09:18;;;;;;;64.65;33.30;;;;;;;;;;5112458;28;20027;-48
2024/01/12 00:11:45;;;;;;;60.50;33.83;;;;;;;;;;5111180;28;20027;-48
2024/01/12 00:14:12;;;;;;;61.38;33.15;;;;;;;;;;5112395;28;20027;-49
2024/01/12 00:16:41;;;;;;;56.08;30.75;;;;;;;;;;5112463;27;20081;-48
2024/01/12 00:19:07;;;;;;;63.85;32.63;;;;;;;;;;5108556;28;20035;-48
2024/01/12 00:21:33;;;;;;;61.53;34.35;;;;;;;;;;5111591;28;20027;-49
2024/01/12 00:24:00;;;;;;;57.77;31.37;;;;;;;;;;5112088;28;20451;-54
2024/01/12 00:26:26;;;;;;;63.53;31.85;;;;;;;;;;5112297;28;20110;-50
2024/01/12 00:28:52;;;;;;;55.20;30.98;;;;;;;;;;5112131;28;20470;-49
2024/01/12 00:31:18;;;;;;;56.60;31.13;;;;;;;;;;5111167;28;20039;-48
2024/01/12 00:33:44;;;;;;;53.90;30.43;;;;;;;;;;5111866;28;20371;-48
2024/01/12 00:36:11;;;;;;;58.23;31.17;;;;;;;;;;5111654;28;20081;-48
2024/01/12 00:38:37;;;;;;;61.05;32.53;;;;;;;;;;5112338;28;20397;-48
2024/01/12 00:41:03;;;;;;;45.13;23.90;;;;;;;;;;5101277;28;20111;-49
2024/01/12 00:43:29;;;;;;;56.35;30.73;;;;;;;;;;5109404;28;20486;-50
2024/01/12 00:45:55;;;;;;;56.80;30.15;;;;;;;;;;5110585;28;20050;-49
2024/01/12 00:48:21;;;;;;;61.80;31.50;;;;;;;;;;5111621;28;20158;-47
2024/01/12 00:50:48;;;;;;;61.20;30.13;;;;;;;;;;5111387;28;20020;-48
2024/01/12 00:53:14;;;;;;;56.07;31.47;;;;;;;;;;5111934;28;20035;-48
2024/01/12 00:55:40;;;;;;;48.45;28.67;;;;;;;;;;5111431;28;20024;-48
2024/01/12 00:58:06;;;;;;;61.43;31.67;;;;;;;;;;5093830;28;20077;-48
2024/01/12 01:00:32;;;;;;;52.20;29.75;;;;;;;;;;5110406;28;20036;-51
2024/01/12 01:03:02;;;;;;;54.47;30.83;;;;;;;;;;5111421;28;20490;-51
2024/01/12 01:05:28;;;;;;;53.75;29.42;;;;;;;;;;5110145;28;20042;-48
2024/01/12 01:07:54;;;;;;;53.33;29.70;;;;;;;;;;5111631;28;20084;-48
2024/01/12 01:10:20;;;;;;;49.23;27.47;;;;;;;;;;5111312;28;20034;-48
2024/01/12 01:12:46;;;;;;;52.58;28.85;;;;;;;;;;5111438;28;20261;-48
2024/01/12 01:15:14;;;;;;;59.63;30.33;;;;;;;;;;5109869;28;20028;-51
2024/01/12 01:17:40;;;;;;;52.15;27.83;;;;;;;;;;5111454;28;20398;-48
2024/01/12 01:20:07;;;;;;;57.33;27.43;;;;;;;;;;5110308;28;20270;-48
2024/01/12 01:22:34;;;;;;;60.00;29.00;;;;;;;;;;5111766;28;20262;-47
2024/01/12 01:25:01;;;;;;;51.05;28.88;;;;;;;;;;5110215;28;20042;-53
2024/01/12 01:27:27;;;;;;;56.05;29.23;;;;;;;;;;5111000;28;20561;-48
2024/01/12 01:29:53;;;;;;;55.33;29.10;;;;;;;;;;5110151;28;20396;-48
2024/01/12 01:32:19;;;;;;;49.25;25.90;;;;;;;;;;5109898;28;20093;-47
2024/01/12 01:34:46;;;;;;;54.40;29.23;;;;;;;;;;5109813;28;20060;-48
2024/01/12 01:37:12;;;;;;;56.87;30.77;;;;;;;;;;5110102;28;20106;-48
2024/01/12 01:39:38;;;;;;;58.88;30.05;;;;;;;;;;5110016;28;20031;-48
2024/01/12 01:42:05;;;;;;;63.55;28.40;;;;;;;;;;5111477;28;20036;-48
2024/01/12 01:44:31;;;;;;;54.33;29.70;;;;;;;;;;5111073;28;20106;-49
2024/01/12 01:46:59;;;;;;;56.92;30.77;;;;;;;;;;5111039;28;20031;-50
2024/01/12 01:49:26;;;;;;;53.92;28.85;;;;;;;;;;5111069;28;20118;-49
2024/01/12 01:51:52;;;;;;;59.45;29.55;;;;;;;;;;5111608;28;20028;-48
2024/01/12 01:54:19;;;;;;;53.43;27.77;;;;;;;;;;5111172;28;20028;-48
2024/01/12 01:56:46;;;;;;;59.70;30.05;;;;;;;;;;5111155;28;20296;-48
2024/01/12 01:59:12;;;;;;;51.47;28.15;;;;;;;;;;5111067;28;20474;-48
2024/01/12 02:01:39;;;;;;;47.90;27.73;;;;;;;;;;5110928;28;20563;-49
2024/01/12 02:04:06;;;;;;;50.22;28.58;;;;;;;;;;5111137;28;20024;-48
2024/01/12 02:06:33;;;;;;;48.78;27.05;;;;;;;;;;5112422;28;20023;-48
2024/01/12 02:09:00;;;;;;;57.13;29.60;;;;;;;;;;5114615;28;20024;-51
2024/01/12 02:11:26;;;;;;;52.22;28.80;;;;;;;;;;5114738;28;20266;-48
2024/01/12 02:13:52;;;;;;;49.13;26.00;;;;;;;;;;5114602;28;20023;-49
2024/01/12 02:16:18;;;;;;;53.50;28.88;;;;;;;;;;5113384;28;20541;-49
2024/01/12 02:18:44;;;;;;;50.60;26.97;;;;;;;;;;5114609;28;20080;-48
2024/01/12 02:21:11;;;;;;;55.33;28.07;;;;;;;;;;5113807;28;20398;-49
2024/01/12 02:23:37;;;;;;;58.80;29.75;;;;;;;;;;5114610;28;20026;-49
2024/01/12 02:26:03;;;;;;;52.38;29.25;;;;;;;;;;5114767;28;20030;-48
2024/01/12 02:28:31;;;;;;;55.50;30.03;;;;;;;;;;5113328;28;20065;-48
2024/01/12 02:30:57;;;;;;;56.55;28.05;;;;;;;;;;5113305;28;20371;-49
2024/01/12 02:33:23;;;;;;;57.30;29.77;;;;;;;;;;5114628;28;20019;-48
2024/01/12 02:35:49;;;;;;;52.45;27.90;;;;;;;;;;5114247;28;20027;-48
2024/01/12 02:38:16;;;;;;;55.63;29.70;;;;;;;;;;5113283;28;20494;-48
2024/01/12 02:40:42;;;;;;;53.67;30.15;;;;;;;;;;5114455;28;20023;-49
2024/01/12 02:43:08;;;;;;;50.08;26.05;;;;;;;;;;5114373;28;20077;-48
2024/01/12 02:45:34;;;;;;;52.88;27.65;;;;;;;;;;5114144;28;20364;-47
2024/01/12 02:48:00;;;;;;;50.17;27.85;;;;;;;;;;5113013;28;20034;-49
2024/01/12 02:50:26;;;;;;;44.80;26.30;;;;;;;;;;5095935;28;20028;-50
2024/01/12 02:52:53;;;;;;;50.17;27.38;;;;;;;;;;5112932;28;20066;-49
2024/01/12 02:55:19;;;;;;;47.97;25.43;;;;;;;;;;5113923;28;20107;-52
2024/01/12 02:57:45;;;;;;;49.05;26.33;;;;;;;;;;5114068;28;20027;-47
2024/01/12 03:00:11;;;;;;;49.97;26.83;;;;;;;;;;5112433;28;20114;-49
2024/01/12 03:02:38;;;;;;;40.45;22.48;;;;;;;;;;5112520;28;20276;-48
2024/01/12 03:05:04;;;;;;;51.72;27.63;;;;;;;;;;5113268;28;20389;-47
2024/01/12 03:07:30;;;;;;;53.22;26.92;;;;;;;;;;5112443;28;20122;-48
2024/01/12 03:09:58;;;;;;;55.27;25.57;;;;;;;;;;5112096;28;20164;-48
2024/01/12 03:12:24;;;;;;;46.60;28.13;;;;;;;;;;5112441;28;20028;-48
2024/01/12 03:14:51;;;;;;;51.63;26.65;;;;;;;;;;5113149;28;20024;-48
2024/01/12 03:17:17;;;;;;;50.20;27.43;;;;;;;;;;5112853;28;20512;-48
2024/01/12 03:19:43;;;;;;;57.03;27.95;;;;;;;;;;5113011;28;20027;-51
2024/01/12 03:22:09;;;;;;;49.73;26.77;;;;;;;;;;5097976;28;20028;-52
2024/01/12 03:24:35;;;;;;;50.00;28.05;;;;;;;;;;5111824;28;20394;-48
2024/01/12 03:27:01;;;;;;;54.50;27.70;;;;;;;;;;5095209;28;20035;-50
2024/01/12 03:29:28;;;;;;;50.87;28.20;;;;;;;;;;5111959;28;20031;-48
2024/01/12 03:31:54;;;;;;;48.65;25.15;;;;;;;;;;5113255;28;20058;-48
2024/01/12 03:34:20;;;;;;;55.17;28.27;;;;;;;;;;5112927;28;20109;-48
2024/01/12 03:36:46;;;;;;;49.83;28.95;;;;;;;;;;5111470;28;20375;-48
2024/01/12 03:39:13;;;;;;;45.83;24.67;;;;;;;;;;5113041;28;20023;-48
2024/01/12 03:41:39;;;;;;;56.10;29.23;;;;;;;;;;5112955;28;20032;-47
2024/01/12 03:44:05;;;;;;;56.30;29.73;;;;;;;;;;5111008;28;20031;-47
2024/01/12 03:46:31;;;;;;;52.17;28.92;;;;;;;;;;5110581;28;20040;-47
2024/01/12 03:48:57;;;;;;;53.45;27.75;;;;;;;;;;5112987;28;20258;-48
2024/01/12 03:51:23;;;;;;;52.63;28.13;;;;;;;;;;5112746;28;20035;-48
2024/01/12 03:53:50;;;;;;;59.47;29.85;;;;;;;;;;5111170;28;20409;-50
2024/01/12 03:56:16;;;;;;;54.80;28.95;;;;;;;;;;5112492;28;20032;-51
2024/01/12 03:58:44;;;;;;;59.22;28.58;;;;;;;;;;5112957;28;20115;-48
2024/01/12 04:01:10;;;;;;;56.60;29.45;;;;;;;;;;5111493;28;20097;-48
2024/01/12 04:03:37;;;;;;;54.33;30.17;;;;;;;;;;5112172;28;20104;-48
2024/01/12 04:06:08;;;;;;;53.92;29.75;;;;;;;;;;5111773;28;20382;-48
2024/01/12 04:08:34;;;;;;;50.75;27.40;;;;;;;;;;5111445;28;20401;-48
2024/01/12 04:11:01;;;;;;;49.25;28.08;;;;;;;;;;5112431;28;20065;-48
2024/01/12 04:13:27;;;;;;;57.37;29.87;;;;;;;;;;5112358;28;20065;-47
2024/01/12 04:15:53;;;;;;;54.55;30.92;;;;;;;;;;5110882;28;20011;-48
2024/01/12 04:18:20;;;;;;;46.70;27.30;;;;;;;;;;5112631;28;20032;-48
2024/01/12 04:20:46;;;;;;;50.65;27.25;;;;;;;;;;5112530;28;20020;-50
2024/01/12 04:23:12;;;;;;;60.83;30.50;;;;;;;;;;5111357;28;20371;-49
2024/01/12 04:25:38;;;;;;;59.50;31.63;;;;;;;;;;5111769;28;20034;-48
2024/01/12 04:28:05;;;;;;;59.17;29.90;;;;;;;;;;5111043;28;20023;-48
2024/01/12 04:30:31;;;;;;;59.53;30.23;;;;;;;;;;5112082;28;20073;-48
2024/01/12 04:32:57;;;;;;;57.40;31.25;;;;;;;;;;5112135;28;20489;-48
2024/01/12 04:35:23;;;;;;;53.33;31.03;;;;;;;;;;5113950;22;20477;-47
2024/01/12 04:37:50;;;;;;;56.17;29.30;;;;;;;;;;5091689;28;20428;-48
2024/01/12 04:40:16;;;;;;;59.72;30.02;;;;;;;;;;5091592;28;20104;-50
2024/01/12 04:42:42;;;;;;;59.20;30.65;;;;;;;;;;5091975;28;20043;-48
2024/01/12 04:45:08;;;;;;;51.55;30.15;;;;;;;;;;5072437;28;20071;-48
2024/01/12 04:47:34;;;;;;;54.40;28.05;;;;;;;;;;5091581;28;20028;-45
2024/01/12 04:50:01;;;;;;;54.38;30.73;;;;;;;;;;5091736;28;20028;-44
2024/01/12 04:52:28;;;;;;;59.28;30.67;;;;;;;;;;5073263;28;20024;-47
2024/01/12 04:54:54;;;;;;;55.67;29.57;;;;;;;;;;5091182;28;20024;-49
2024/01/12 04:57:21;;;;;;;56.93;31.30;;;;;;;;;;5091080;28;20038;-47
2024/01/12 04:59:47;;;;;;;58.38;29.60;;;;;;;;;;5091540;28;20093;-50
2024/01/12 05:02:13;;;;;;;63.20;32.63;;;;;;;;;;5091628;28;20032;-48
2024/01/12 05:04:39;;;;;;;57.15;30.95;;;;;;;;;;5091402;28;20290;-52
2024/01/12 05:07:05;;;;;;;56.40;30.25;;;;;;;;;;5091547;28;20453;-50
2024/01/12 05:09:31;;;;;;;58.90;30.80;;;;;;;;;;5073448;28;20036;-48
2024/01/12 05:11:59;;;;;;;54.63;28.85;;;;;;;;;;5091640;28;20020;-48
2024/01/12 05:14:26;;;;;;;60.72;29.85;;;;;;;;;;5091403;28;20032;-52
2024/01/12 05:16:52;;;;;;;53.72;30.67;;;;;;;;;;5091450;28;20028;-48
2024/01/12 05:19:18;;;;;;;59.73;31.27;;;;;;;;;;5091527;28;20478;-48
2024/01/12 05:21:44;;;;;;;59.85;29.33;;;;;;;;;;5091712;28;20028;-47
2024/01/12 05:24:11;;;;;;;61.93;29.03;;;;;;;;;;5091337;28;20032;-48
2024/01/12 05:26:37;;;;;;;53.17;27.48;;;;;;;;;;5091420;28;20070;-47
2024/01/12 05:29:03;;;;;;;57.63;29.20;;;;;;;;;;5073294;28;20032;-48
2024/01/12 05:31:29;;;;;;;57.50;28.80;;;;;;;;;;5091441;28;20565;-48
2024/01/12 05:33:55;;;;;;;54.20;27.40;;;;;;;;;;5091108;28;20520;-49
2024/01/12 05:36:22;;;;;;;59.00;30.77;;;;;;;;;;5091188;28;20028;-50
2024/01/12 05:38:48;;;;;;;61.30;30.30;;;;;;;;;;5091386;28;20028;-49
2024/01/12 05:41:14;;;;;;;60.78;30.70;;;;;;;;;;5074187;28;20020;-49
2024/01/12 05:43:40;;;;;;;57.43;30.60;;;;;;;;;;5077069;28;20093;-48
2024/01/12 05:46:07;;;;;;;57.67;30.63;;;;;;;;;;5095117;28;20270;-48
2024/01/12 05:48:34;;;;;;;60.90;31.17;;;;;;;;;;5095000;28;20036;-49
2024/01/12 05:51:00;;;;;;;59.63;30.73;;;;;;;;;;5076974;28;20478;-49
2024/01/12 05:53:26;;;;;;;58.70;32.43;;;;;;;;;;5076838;28;20032;-48
2024/01/12 05:55:53;;;;;;;54.67;30.55;;;;;;;;;;5094947;28;20474;-48
2024/01/12 05:58:19;;;;;;;59.50;30.85;;;;;;;;;;5095071;28;20024;-48
2024/01/12 06:00:47;;;;;;;64.05;33.45;;;;;;;;;;5094684;28;20024;-48
2024/01/12 06:03:14;;;;;;;63.58;32.17;;;;;;;;;;5094641;28;20106;-48
2024/01/12 06:05:45;;;;;;;55.90;30.80;;;;;;;;;;5059838;28;20071;-48
2024/01/12 06:08:11;;;;;;;64.43;30.98;;;;;;;;;;5094744;28;20309;-47
2024/01/12 06:10:38;;;;;;;58.53;32.30;;;;;;;;;;5094836;28;20028;-48
2024/01/12 06:13:04;;;;;;;61.90;32.77;;;;;;;;;;5076701;28;20540;-49
2024/01/12 06:15:31;;;;;;;59.28;29.83;;;;;;;;;;5094185;28;20436;-52
2024/01/12 06:17:59;;;;;;;58.75;32.08;;;;;;;;;;5076421;28;20037;-53
2024/01/12 06:20:25;;;;;;;60.08;31.35;;;;;;;;;;5094441;28;20023;-49
2024/01/12 06:22:52;;;;;;;59.75;32.80;;;;;;;;;;5094581;28;20049;-50
2024/01/12 06:25:18;;;;;;;45.63;25.17;;;;;;;;;;5076272;28;20146;-48
2024/01/12 06:27:44;;;;;;;59.97;30.17;;;;;;;;;;5094389;28;20815;-48
2024/01/12 06:30:11;;;;;;;61.85;31.73;;;;;;;;;;5094151;28;20081;-49
2024/01/12 06:32:38;;;;;;;63.53;31.20;;;;;;;;;;5094338;28;20390;-49
2024/01/12 06:35:04;;;;;;;;;;;;;;;;;;5094584;28;20020;-51
2024/01/12 06:37:30;;;;;;;59.90;33.10;;;;;;;;;;5094426;28;19912;-47
2024/01/12 06:39:58;;;;;;;64.80;31.33;;;;;;;;;;5094236;28;20069;-50
2024/01/12 06:42:24;;;;;;;60.08;31.52;;;;;;;;;;5094159;28;20116;-48
2024/01/12 06:44:51;;;;;;;68.27;30.80;;;;;;;;;;5093951;28;20035;-48
2024/01/12 06:47:17;;;;;;;62.23;32.37;;;;;;;;;;5075980;28;20032;-50
2024/01/12 06:49:44;;;;;;;54.28;31.10;;;;;;;;;;5093999;28;20276;-49
2024/01/12 06:52:10;;;;;;;53.58;29.05;;;;;;;;;;5075893;28;20074;-48
2024/01/12 06:54:36;;;;;;;54.28;29.23;;;;;;;;;;5093809;28;20026;-48
2024/01/12 06:57:03;;;;;;;56.90;29.37;;;;;;;;;;5075629;28;20051;-48
2024/01/12 06:59:29;;;;;;;58.45;30.88;;;;;;;;;;5075630;28;20359;-50
2024/01/12 07:01:55;;;;;;;58.17;31.60;;;;;;;;;;5075724;28;20513;-48
2024/01/12 07:04:21;;;;;;;61.07;30.50;;;;;;;;;;5093541;28;20043;-52
2024/01/12 07:06:47;;;;;;;57.53;30.38;;;;;;;;;;5093664;28;20032;-50
2024/01/12 07:09:14;;;;;;;58.88;29.90;;;;;;;;;;5093582;28;20417;-50
2024/01/12 07:11:41;;;;;;;59.97;30.50;;;;;;;;;;5075407;28;20093;-49
2024/01/12 07:14:08;;;;;;;58.15;31.15;;;;;;;;;;5075134;28;20779;-50
2024/01/12 07:16:34;;;;;;;55.67;29.85;;;;;;;;;;5093287;28;20024;-48
2024/01/12 07:19:00;;;;;;;57.05;29.75;;;;;;;;;;5075318;28;20031;-48
2024/01/12 07:21:26;;;;;;;56.47;28.73;;;;;;;;;;5093394;28;20032;-51
2024/01/12 07:23:52;;;;;;;54.10;29.08;;;;;;;;;;5075126;28;20312;-50
2024/01/12 07:26:19;;;;;;;57.92;29.35;;;;;;;;;;5074987;28;20032;-47
2024/01/12 07:28:45;;;;;;;56.45;30.25;;;;;;;;;;5093092;28;20032;-48
2024/01/12 07:31:11;;;;;;;54.87;28.47;;;;;;;;;;5093234;28;20046;-47
2024/01/12 07:33:37;;;;;;;55.47;29.17;;;;;;;;;;5093043;28;20069;-48
2024/01/12 07:36:03;;;;;;;59.38;30.45;;;;;;;;;;5092997;28;20504;-48
2024/01/12 07:38:30;;;;;;;58.08;32.30;;;;;;;;;;5058305;28;20119;-50
2024/01/12 07:40:56;;;;;;;51.60;29.97;;;;;;;;;;5074797;28;20484;-53
2024/01/12 07:43:22;;;;;;;59.37;29.63;;;;;;;;;;5092897;28;20037;-49
2024/01/12 07:45:49;;;;;;;63.80;31.63;;;;;;;;;;5092731;28;20254;-48
2024/01/12 07:48:15;;;;;;;50.55;26.63;;;;;;;;;;5074618;28;20547;-48
2024/01/12 07:50:41;;;;;;;56.93;31.53;;;;;;;;;;5092884;28;20386;-51
2024/01/12 07:53:07;;;;;;;54.97;31.17;;;;;;;;;;5092797;28;20032;-50
2024/01/12 07:55:34;;;;;;;69.53;31.48;;;;;;;;;;5092472;28;20337;-51
2024/01/12 07:58:00;;;;;;;63.70;31.20;;;;;;;;;;5092834;28;20490;-50
2024/01/12 08:00:26;;;;;;;64.13;33.00;;;;;;;;;;5092675;28;20074;-51
2024/01/12 08:02:52;;;;;;;58.97;31.17;;;;;;;;;;5092560;28;20024;-50
2024/01/12 08:05:20;;;;;;;55.97;31.38;;;;;;;;;;5073843;28;20027;-51
2024/01/12 08:07:46;;;;;;;54.38;29.75;;;;;;;;;;5092621;28;20077;-48
2024/01/12 08:10:13;;;;;;;63.53;31.65;;;;;;;;;;5092331;28;20024;-50
2024/01/12 08:12:39;;;;;;;58.63;29.70;;;;;;;;;;5092447;28;20111;-51
2024/01/12 08:15:06;;;;;;;61.42;32.45;;;;;;;;;;5092193;28;20020;-51
2024/01/12 08:17:32;;;;;;;59.10;32.50;;;;;;;;;;5074191;28;20032;-47
2024/01/12 08:19:58;;;;;;;45.28;24.15;;;;;;;;;;5074182;28;20309;-47
2024/01/12 08:22:24;;;;;;;54.85;29.60;;;;;;;;;;5092074;28;20371;-53
2024/01/12 08:24:50;;;;;;;59.25;30.50;;;;;;;;;;5091911;28;20397;-52
2024/01/12 08:27:17;;;;;;;54.93;32.07;;;;;;;;;;5092003;28;20024;-54
2024/01/12 08:29:43;;;;;;;59.58;31.08;;;;;;;;;;5073839;28;20103;-50
2024/01/12 08:32:09;;;;;;;55.87;29.53;;;;;;;;;;5074002;28;20038;-50
2024/01/12 08:34:35;;;;;;;58.72;32.08;;;;;;;;;;5073775;28;20060;-52
2024/01/12 08:37:01;;;;;;;62.97;30.50;;;;;;;;;;5073573;28;20472;-48
2024/01/12 08:39:29;;;;;;;53.92;29.98;;;;;;;;;;5091821;28;20031;-48
2024/01/12 08:41:55;;;;;;;69.72;32.97;;;;;;;;;;5091815;28;20444;-50
2024/01/12 08:44:21;;;;;;;54.00;31.63;;;;;;;;;;5091710;28;20016;-52
2024/01/12 08:46:47;;;;;;;56.35;29.88;;;;;;;;;;5091844;28;20470;-53
2024/01/12 08:49:13;;;;;;;60.08;29.92;;;;;;;;;;5091691;28;20497;-48
2024/01/12 08:51:40;;;;;;;42.47;23.17;;;;;;;;;;5091632;28;20116;-47
2024/01/12 08:54:06;;;;;;;58.33;29.93;;;;;;;;;;5091357;28;20494;-48
2024/01/12 08:56:32;;;;;;;54.00;30.25;;;;;;;;;;5073447;28;20023;-48
2024/01/12 08:58:59;;;;;;;55.47;30.53;;;;;;;;;;5073385;28;20098;-47
2024/01/12 09:01:25;;;;;;;62.35;31.15;;;;;;;;;;5073462;28;20028;-51
2024/01/12 09:03:51;;;;;;;57.05;32.42;;;;;;;;;;5091375;28;20040;-49
2024/01/12 09:06:17;;;;;;;64.47;34.97;;;;;;;;;;5091433;28;20527;-49
2024/01/12 09:08:44;;;;;;;68.77;33.83;;;;;;;;;;5091435;28;20278;-50
2024/01/12 09:11:11;;;;;;;67.37;36.03;;;;;;;;;;5091426;28;20024;-52
2024/01/12 09:13:38;;;;;;;60.83;32.42;;;;;;;;;;5056408;28;20101;-48
2024/01/12 09:16:04;;;;;;;61.13;32.50;;;;;;;;;;5092259;28;20122;-49
2024/01/12 09:18:31;;;;;;;54.22;32.35;;;;;;;;;;5077388;28;20036;-49
2024/01/12 09:20:57;;;;;;;64.63;35.43;;;;;;;;;;5095548;28;20382;-48
2024/01/12 09:23:23;;;;;;;62.50;33.50;;;;;;;;;;5095480;28;20489;-52
2024/01/12 09:25:52;;;;;;;63.20;32.78;;;;;;;;;;5095213;28;20020;-50
2024/01/12 09:28:18;;;;;;;65.05;35.20;;;;;;;;;;5060543;28;20107;-49
2024/01/12 09:30:46;;;;;;;;;;;;;;;;;;5095918;28;20077;-47
2024/01/12 09:33:12;;;;;;;62.58;34.95;;;;;;;;;;5077285;28;20320;-49
2024/01/12 09:35:38;;;;;;;63.47;34.10;;;;;;;;;;5060019;28;20414;-51
2024/01/12 09:38:05;;;;;;;54.08;31.92;;;;;;;;;;5095508;28;20020;-48
2024/01/12 09:40:32;;;;;;;65.90;34.05;;;;;;;;;;5095175;28;20035;-49
2024/01/12 09:43:00;;;;;;;61.90;33.10;;;;;;;;;;5095232;28;20111;-50
2024/01/12 09:45:27;;;;;;;63.42;33.30;;;;;;;;;;5094912;28;20024;-48
2024/01/12 09:47:53;;;;;;;65.97;36.58;;;;;;;;;;5094908;28;20058;-51
2024/01/12 09:50:24;;;;;;;59.42;33.03;;;;;;;;;;5094956;28;20085;-49
2024/01/12 09:52:53;;;;;;;62.25;34.97;;;;;;;;;;5095029;28;20475;-49
2024/01/12 09:55:19;;;;;;;63.53;34.15;;;;;;;;;;5094725;28;20017;-47
2024/01/12 09:57:46;;;;;;;64.67;35.20;;;;;;;;;;5095019;28;20032;-49
2024/01/12 10:00:14;;;;;;;62.38;35.08;;;;;;;;;;5094861;28;20024;-49
2024/01/12 10:02:40;;;;;;;63.90;35.72;;;;;;;;;;5094703;28;20028;-51
2024/01/12 10:05:07;;;;;;;64.05;36.60;;;;;;;;;;5094516;28;20032;-50
2024/01/12 10:07:33;;;;;;;61.97;34.67;;;;;;;;;;5076417;28;20040;-50
2024/01/12 10:09:59;;;;;;;62.40;35.88;;;;;;;;;;5094576;28;20024;-49
2024/01/12 10:12:26;;;;;;;67.85;36.20;;;;;;;;;;5076494;28;20024;-50
2024/01/12 10:14:59;;;;;;;71.13;37.67;;;;;;;;;;5076071;28;20229;-49
2024/01/12 10:17:25;;;;;;;70.00;38.47;;;;;;;;;;5094487;28;20111;-48
2024/01/12 10:19:51;;;;;;;71.90;42.45;;;;;;;;;;5094520;28;20107;-48
2024/01/12 10:22:18;;;;;;;63.67;35.90;;;;;;;;;;5094398;28;20077;-48
2024/01/12 10:24:44;;;;;;;69.43;37.93;;;;;;;;;;5094286;28;20028;-50
2024/01/12 10:27:13;;;;;;;65.30;36.60;;;;;;;;;;5075682;28;20032;-48
2024/01/12 10:29:39;;;;;;;66.60;37.80;;;;;;;;;;5059272;28;20020;-48
2024/01/12 10:32:06;;;;;;;62.30;36.72;;;;;;;;;;5076019;28;20550;-48
2024/01/12 10:34:35;;;;;;;71.38;37.17;;;;;;;;;;5094131;28;20024;-48
2024/01/12 10:37:02;;;;;;;63.92;36.38;;;;;;;;;;5076457;28;20034;-48
2024/01/12 10:39:30;;;;;;;63.75;37.63;;;;;;;;;;5094079;28;20023;-48
2024/01/12 10:42:00;;;;;;;66.15;37.67;;;;;;;;;;5093956;28;20115;-50
2024/01/12 10:44:28;;;;;;;60.80;35.30;;;;;;;;;;5075546;28;20097;-48
2024/01/12 10:46:57;;;;;;;62.42;37.50;;;;;;;;;;5093873;28;20028;-46
2024/01/12 10:49:28;;;;;;;61.88;35.42;;;;;;;;;;5075941;28;20054;-48
2024/01/12 10:52:14;;;;;;;61.25;35.10;;;;;;;;;;5093773;28;20021;-48
2024/01/12 10:54:40;;;;;;;60.28;33.38;;;;;;;;;;5093597;28;20046;-48
2024/01/12 10:57:07;;;;;;;57.28;35.60;;;;;;;;;;5093582;28;20028;-49
2024/01/12 10:59:34;;;;;;;53.70;33.28;;;;;;;;;;5093706;28;20069;-51
2024/01/12 11:02:00;;;;;;;55.95;35.47;;;;;;;;;;5094354;28;20020;-49
2024/01/12 11:04:27;;;;;;;57.30;32.67;;;;;;;;;;5093421;28;20089;-48
2024/01/12 11:06:56;;;;;;;50.17;31.52;;;;;;;;;;5093572;28;20032;-47
2024/01/12 11:09:23;;;;;;;54.47;31.90;;;;;;;;;;5093247;28;20066;-49
2024/01/12 11:11:56;;;;;;;59.83;36.47;;;;;;;;;;5075206;28;20070;-53
2024/01/12 11:14:22;;;;;;;55.90;33.42;;;;;;;;;;5093258;28;20028;-48
2024/01/12 11:16:50;;;;;;;54.67;32.63;;;;;;;;;;5093404;28;20028;-48
2024/01/12 11:19:19;;;;;;;58.40;34.33;;;;;;;;;;5075484;28;20371;-49
2024/01/12 11:21:45;;;;;;;59.45;35.70;;;;;;;;;;5092806;28;20077;-46
2024/01/12 11:24:12;;;;;;;59.43;34.07;;;;;;;;;;5075040;28;20051;-50
2024/01/12 11:26:41;;;;;;;62.17;36.55;;;;;;;;;;5074296;28;20412;-45
2024/01/12 11:29:13;;;;;;;68.93;37.10;;;;;;;;;;5093156;28;20390;-45
2024/01/12 11:31:48;;;;;;;53.65;33.17;;;;;;;;;;5074666;28;20112;-49
2024/01/12 11:34:15;;;;;;;50.45;31.38;;;;;;;;;;5092974;28;20393;-48
2024/01/12 11:36:41;;;;;;;54.42;32.22;;;;;;;;;;5089212;28;20438;-47
2024/01/12 11:39:11;;;;;;;50.20;32.15;;;;;;;;;;5090096;28;20064;-51
2024/01/12 11:41:37;;;;;;;112.32;76.50;;;;;;;;;;5072994;28;20020;-49
2024/01/12 11:44:04;;;;;;;103.27;63.93;;;;;;;;;;5073931;28;20024;-50
2024/01/12 11:46:31;;;;;;;65.28;42.22;;;;;;;;;;5055608;28;20034;-50
2024/01/12 11:48:57;;;;;;;61.33;40.47;;;;;;;;;;5091841;28;20408;-49
2024/01/12 11:51:24;;;;;;;54.92;34.47;;;;;;;;;;5090987;28;20470;-50
2024/01/12 11:53:57;;;;;;;53.75;36.22;;;;;;;;;;5055766;28;20024;-49
2024/01/12 11:56:24;;;;;;;58.97;37.13;;;;;;;;;;5090128;28;20093;-51
2024/01/12 11:58:54;;;;;;;54.10;33.97;;;;;;;;;;5088795;28;20074;-48
2024/01/12 12:01:21;;;;;;;52.90;34.78;;;;;;;;;;5078805;28;20446;-52
2024/01/12 12:03:49;;;;;;;;;;;;;;;;;;5090172;28;20036;-47
2024/01/12 12:06:15;;;;;;;40.30;26.57;;;;;;;;;;5055780;28;19915;-52
2024/01/12 12:08:42;;;;;;;43.20;25.77;;;;;;;;;;5072054;28;20078;-54
2024/01/12 12:11:08;;;;;;;44.63;28.42;;;;;;;;;;5072055;28;20099;-47
2024/01/12 12:13:35;;;;;;;73.20;47.30;;;;;;;;;;5072179;28;20028;-51
2024/01/12 12:16:03;;;;;;;63.92;44.55;;;;;;;;;;5070127;28;20031;-47
2024/01/12 12:18:32;;;;;;;47.60;31.90;;;;;;;;;;5071248;28;20427;-49
2024/01/12 12:21:00;;;;;;;50.30;33.30;;;;;;;;;;5090010;28;20039;-51
2024/01/12 12:23:27;;;;;;;52.42;33.85;;;;;;;;;;5070907;28;20505;-47
2024/01/12 12:25:54;;;;;;;45.72;31.90;;;;;;;;;;5090040;28;20033;-50
2024/01/12 12:28:21;;;;;;;42.03;29.65;;;;;;;;;;5089896;28;20028;-50
2024/01/12 12:30:48;;;;;;;44.53;29.38;;;;;;;;;;5089978;28;20027;-50
2024/01/12 12:33:14;;;;;;;38.42;26.40;;;;;;;;;;5090512;28;20024;-52
2024/01/12 12:35:40;;;;;;;39.95;30.05;;;;;;;;;;5089992;28;20458;-52
2024/01/12 12:38:07;;;;;;;38.40;27.60;;;;;;;;;;5090092;28;20039;-52
2024/01/12 12:40:33;;;;;;;31.52;23.02;;;;;;;;;;5090423;28;20028;-48
2024/01/12 12:42:59;;;;;;;38.58;28.63;;;;;;;;;;5090369;28;20028;-49
2024/01/12 12:45:26;;;;;;;32.10;23.23;;;;;;;;;;5054769;28;20028;-49
2024/01/12 12:47:53;;;;;;;28.58;21.25;;;;;;;;;;5090499;28;20042;-51
2024/01/12 12:50:19;;;;;;;33.25;21.42;;;;;;;;;;5089742;28;20020;-52
2024/01/12 12:52:46;;;;;;;35.05;22.92;;;;;;;;;;5071982;28;20093;-47
2024/01/12 12:55:12;;;;;;;29.55;22.38;;;;;;;;;;5089701;28;20032;-45
2024/01/12 12:57:39;;;;;;;38.03;26.98;;;;;;;;;;5088029;28;20241;-49
2024/01/12 13:00:09;;;;;;;33.90;26.05;;;;;;;;;;5089669;28;20032;-50
2024/01/12 13:02:35;;;;;;;35.47;25.80;;;;;;;;;;5069981;28;20029;-49
2024/01/12 13:05:03;;;;;;;39.60;25.83;;;;;;;;;;5083857;28;20040;-50
2024/01/12 13:07:29;;;;;;;34.00;25.08;;;;;;;;;;5090399;28;20109;-49
2024/01/12 13:09:55;;;;;;;33.90;26.87;;;;;;;;;;5089506;28;20435;-47
2024/01/12 13:12:22;;;;;;;32.30;25.37;;;;;;;;;;5089610;28;20036;-47
2024/01/12 13:14:48;;;;;;;33.60;25.65;;;;;;;;;;5089560;28;20047;-47
2024/01/12 13:17:14;;;;;;;32.88;24.90;;;;;;;;;;5089580;28;20066;-52
2024/01/12 13:19:41;;;;;;;28.27;23.38;;;;;;;;;;5090045;28;20043;-51
2024/01/12 13:22:07;;;;;;;29.73;23.53;;;;;;;;;;5089962;28;20032;-50
2024/01/12 13:24:33;;;;;;;30.43;24.27;;;;;;;;;;5071154;28;20119;-48
2024/01/12 13:27:01;;;;;;;31.20;22.83;;;;;;;;;;5089700;28;20281;-48
2024/01/12 13:29:27;;;;;;;27.90;22.65;;;;;;;;;;5089487;28;20377;-50
2024/01/12 13:31:54;;;;;;;28.93;22.67;;;;;;;;;;5089440;28;20036;-49
2024/01/12 13:34:21;;;;;;;27.55;22.50;;;;;;;;;;5071669;28;20358;-48
2024/01/12 13:36:47;;;;;;;32.92;25.23;;;;;;;;;;5089465;28;20078;-51
2024/01/12 13:39:14;;;;;;;33.00;23.70;;;;;;;;;;5089600;28;20673;-48
2024/01/12 13:41:41;;;;;;;35.30;25.65;;;;;;;;;;5089387;28;20490;-52
2024/01/12 13:44:07;;;;;;;31.15;23.80;;;;;;;;;;5089812;28;20077;-51
2024/01/12 13:46:33;;;;;;;30.67;23.57;;;;;;;;;;5072267;28;20024;-50
2024/01/12 13:49:00;;;;;;;39.58;25.52;;;;;;;;;;5090976;28;20289;-47
2024/01/12 13:51:26;;;;;;;33.17;26.10;;;;;;;;;;5090316;28;20012;-49
2024/01/12 13:53:52;;;;;;;33.30;26.98;;;;;;;;;;5076120;28;20270;-48
2024/01/12 13:56:19;;;;;;;34.45;25.10;;;;;;;;;;5090831;28;20020;-45
2024/01/12 13:58:45;;;;;;;32.20;24.98;;;;;;;;;;5090564;28;20041;-48
2024/01/12 14:01:12;;;;;;;30.35;24.73;;;;;;;;;;5091084;28;20028;-47
2024/01/12 14:03:38;;;;;;;;;;;;;;;;;;5076623;28;20657;-49
2024/01/12 14:06:05;;;;;;;30.48;23.42;;;;;;;;;;5076607;28;19904;-47
2024/01/12 14:08:31;;;;;;;34.42;25.20;;;;;;;;;;5094281;28;20036;-50
2024/01/12 14:10:58;;;;;;;35.05;24.60;;;;;;;;;;5094845;28;20020;-52
2024/01/12 14:13:24;;;;;;;35.40;25.17;;;;;;;;;;5093199;28;20016;-54
2024/01/12 14:15:51;;;;;;;25.70;19.97;;;;;;;;;;5093765;28;20028;-51